sensor_id;sensor_type;location;lat;lon;timestamp;P1;durP1;ratioP1;P2;durP2;ratioP2
16502;SDS011;53067;48.114;11.694;2022-12-16T00:00:00;18.47;;;12.50;;
16502;SDS011;53067;48.114;11.694;2022-12-16T00:02:29;22.97;;;12.97;;
16502;SDS011;53067;48.114;11.694;2022-12-16T00:04:57;18.37;;;11.53;;
16502;SDS011;53067;48.114;11.694;2022-12-16T00:07:24;17.50;;;11.77;;
16502;SDS011;53067;48.114;11.694;2022-12-16T00:09:52;18.33;;;12.00;;
16502;SDS011;53067;48.114;11.694;2022-12-16T00:12:19;16.80;;;11.07;;
16502;SDS011;53067;48.114;11.694;2022-12-16T00:14:47;22.40;;;12.73;;
16502;SDS011;53067;48.114;11.694;2022-12-16T00:17:14;19.80;;;12.20;;
16502;SDS011;53067;48.114;11.694;2022-12-16T00:19:42;19.60;;;12.57;;
16502;SDS011;53067;48.114;11.694;2022-12-16T00:22:09;22.70;;;12.87;;
16502;SDS011;53067;48.114;11.694;2022-12-16T00:24:37;18.87;;;12.37;;
16502;SDS011;53067;48.114;11.694;2022-12-16T00:27:04;20.17;;;12.53;;
16502;SDS011;53067;48.114;11.694;2022-12-16T00:29:32;21.90;;;12.80;;
16502;SDS011;53067;48.114;11.694;2022-12-16T00:31:59;21.00;;;13.93;;
16502;SDS011;53067;48.114;11.694;2022-12-16T00:34:27;20.77;;;12.60;;
16502;SDS011;53067;48.114;11.694;2022-12-16T00:36:55;20.53;;;12.57;;
16502;SDS011;53067;48.114;11.694;2022-12-16T00:39:22;17.13;;;11.97;;
16502;SDS011;53067;48.114;11.694;2022-12-16T00:41:50;16.77;;;11.73;;
16502;SDS011;53067;48.114;11.694;2022-12-16T00:44:18;19.13;;;11.87;;
16502;SDS011;53067;48.114;11.694;2022-12-16T00:46:46;19.20;;;12.13;;
16502;SDS011;53067;48.114;11.694;2022-12-16T00:49:13;20.20;;;11.87;;
16502;SDS011;53067;48.114;11.694;2022-12-16T00:51:41;23.00;;;12.63;;
16502;SDS011;53067;48.114;11.694;2022-12-16T00:54:08;18.80;;;12.20;;
16502;SDS011;53067;48.114;11.694;2022-12-16T00:56:36;22.23;;;12.50;;
16502;SDS011;53067;48.114;11.694;2022-12-16T00:59:03;18.17;;;11.50;;
16502;SDS011;53067;48.114;11.694;2022-12-16T01:01:31;21.00;;;12.77;;
16502;SDS011;53067;48.114;11.694;2022-12-16T01:03:58;18.40;;;11.73;;
16502;SDS011;53067;48.114;11.694;2022-12-16T01:06:26;17.13;;;11.93;;
16502;SDS011;53067;48.114;11.694;2022-12-16T01:08:53;20.43;;;12.43;;
16502;SDS011;53067;48.114;11.694;2022-12-16T01:11:21;18.87;;;12.20;;
16502;SDS011;53067;48.114;11.694;2022-12-16T01:13:49;18.43;;;11.97;;
16502;SDS011;53067;48.114;11.694;2022-12-16T01:16:17;19.03;;;12.23;;
16502;SDS011;53067;48.114;11.694;2022-12-16T01:18:45;20.53;;;12.70;;
16502;SDS011;53067;48.114;11.694;2022-12-16T01:21:13;19.40;;;13.77;;
16502;SDS011;53067;48.114;11.694;2022-12-16T01:23:41;19.93;;;12.10;;
16502;SDS011;53067;48.114;11.694;2022-12-16T01:26:08;19.73;;;12.57;;
16502;SDS011;53067;48.114;11.694;2022-12-16T01:28:39;19.17;;;11.63;;
16502;SDS011;53067;48.114;11.694;2022-12-16T01:31:06;19.40;;;12.03;;
16502;SDS011;53067;48.114;11.694;2022-12-16T01:33:34;19.30;;;12.20;;
16502;SDS011;53067;48.114;11.694;2022-12-16T01:36:02;18.37;;;11.10;;
16502;SDS011;53067;48.114;11.694;2022-12-16T01:38:31;18.33;;;12.50;;
16502;SDS011;53067;48.114;11.694;2022-12-16T01:40:59;19.60;;;12.77;;
16502;SDS011;53067;48.114;11.694;2022-12-16T01:43:29;19.03;;;11.87;;
16502;SDS011;53067;48.114;11.694;2022-12-16T01:46:02;20.87;;;12.50;;
16502;SDS011;53067;48.114;11.694;2022-12-16T01:48:50;15.57;;;11.30;;
16502;SDS011;53067;48.114;11.694;2022-12-16T01:53:59;17.87;;;11.20;;
16502;SDS011;53067;48.114;11.694;2022-12-16T01:56:31;16.63;;;11.23;;
16502;SDS011;53067;48.114;11.694;2022-12-16T01:59:01;23.23;;;13.37;;
16502;SDS011;53067;48.114;11.694;2022-12-16T02:01:29;18.80;;;11.73;;
16502;SDS011;53067;48.114;11.694;2022-12-16T02:03:57;18.97;;;12.17;;
16502;SDS011;53067;48.114;11.694;2022-12-16T02:06:28;20.23;;;11.80;;
16502;SDS011;53067;48.114;11.694;2022-12-16T02:08:57;18.40;;;11.80;;
16502;SDS011;53067;48.114;11.694;2022-12-16T02:11:41;20.30;;;12.77;;
16502;SDS011;53067;48.114;11.694;2022-12-16T02:14:14;21.27;;;12.60;;
16502;SDS011;53067;48.114;11.694;2022-12-16T02:16:54;22.63;;;12.67;;
16502;SDS011;53067;48.114;11.694;2022-12-16T02:20:19;20.30;;;12.37;;
16502;SDS011;53067;48.114;11.694;2022-12-16T02:28:11;19.20;;;11.60;;
16502;SDS011;53067;48.114;11.694;2022-12-16T02:30:50;21.37;;;12.03;;
16502;SDS011;53067;48.114;11.694;2022-12-16T02:38:37;18.50;;;12.13;;
16502;SDS011;53067;48.114;11.694;2022-12-16T02:41:06;20.40;;;13.40;;
16502;SDS011;53067;48.114;11.694;2022-12-16T02:46:25;19.13;;;13.33;;
16502;SDS011;53067;48.114;11.694;2022-12-16T02:51:44;20.43;;;14.50;;
16502;SDS011;53067;48.114;11.694;2022-12-16T02:54:12;20.03;;;14.00;;
16502;SDS011;53067;48.114;11.694;2022-12-16T02:56:47;18.50;;;13.77;;
16502;SDS011;53067;48.114;11.694;2022-12-16T03:02:01;19.03;;;13.87;;
16502;SDS011;53067;48.114;11.694;2022-12-16T03:04:34;21.20;;;14.50;;
16502;SDS011;53067;48.114;11.694;2022-12-16T03:07:14;24.33;;;15.30;;
16502;SDS011;53067;48.114;11.694;2022-12-16T03:09:46;21.03;;;13.97;;
16502;SDS011;53067;48.114;11.694;2022-12-16T03:12:17;22.07;;;14.77;;
16502;SDS011;53067;48.114;11.694;2022-12-16T03:14:47;20.10;;;14.93;;
16502;SDS011;53067;48.114;11.694;2022-12-16T03:17:18;22.57;;;15.00;;
16502;SDS011;53067;48.114;11.694;2022-12-16T03:19:52;24.17;;;15.57;;
16502;SDS011;53067;48.114;11.694;2022-12-16T03:22:26;22.97;;;16.00;;
16502;SDS011;53067;48.114;11.694;2022-12-16T03:24:54;22.70;;;15.40;;
16502;SDS011;53067;48.114;11.694;2022-12-16T03:27:32;23.43;;;15.43;;
16502;SDS011;53067;48.114;11.694;2022-12-16T03:30:06;19.47;;;15.17;;
16502;SDS011;53067;48.114;11.694;2022-12-16T03:32:37;19.87;;;15.33;;
16502;SDS011;53067;48.114;11.694;2022-12-16T03:37:42;23.43;;;16.00;;
16502;SDS011;53067;48.114;11.694;2022-12-16T03:40:12;22.80;;;15.03;;
16502;SDS011;53067;48.114;11.694;2022-12-16T03:42:40;22.93;;;16.10;;
16502;SDS011;53067;48.114;11.694;2022-12-16T03:45:17;25.70;;;17.00;;
16502;SDS011;53067;48.114;11.694;2022-12-16T03:47:47;22.80;;;15.67;;
16502;SDS011;53067;48.114;11.694;2022-12-16T03:50:18;23.23;;;16.07;;
16502;SDS011;53067;48.114;11.694;2022-12-16T03:52:49;22.47;;;15.93;;
16502;SDS011;53067;48.114;11.694;2022-12-16T03:55:16;22.47;;;16.43;;
16502;SDS011;53067;48.114;11.694;2022-12-16T03:57:44;22.30;;;15.63;;
16502;SDS011;53067;48.114;11.694;2022-12-16T04:00:11;19.57;;;14.07;;
16502;SDS011;53067;48.114;11.694;2022-12-16T04:02:40;17.83;;;13.17;;
16502;SDS011;53067;48.114;11.694;2022-12-16T04:05:08;19.53;;;14.30;;
16502;SDS011;53067;48.114;11.694;2022-12-16T04:07:36;22.60;;;14.57;;
16502;SDS011;53067;48.114;11.694;2022-12-16T04:10:05;22.10;;;15.30;;
16502;SDS011;53067;48.114;11.694;2022-12-16T04:12:33;21.23;;;15.57;;
16502;SDS011;53067;48.114;11.694;2022-12-16T04:15:18;18.97;;;14.43;;
16502;SDS011;53067;48.114;11.694;2022-12-16T04:18:04;24.07;;;16.17;;
16502;SDS011;53067;48.114;11.694;2022-12-16T04:20:53;23.33;;;15.70;;
16502;SDS011;53067;48.114;11.694;2022-12-16T04:23:45;22.90;;;16.83;;
16502;SDS011;53067;48.114;11.694;2022-12-16T04:26:28;25.60;;;17.03;;
16502;SDS011;53067;48.114;11.694;2022-12-16T04:28:56;24.70;;;16.00;;
16502;SDS011;53067;48.114;11.694;2022-12-16T04:31:23;23.77;;;16.33;;
16502;SDS011;53067;48.114;11.694;2022-12-16T04:33:50;26.30;;;17.13;;
16502;SDS011;53067;48.114;11.694;2022-12-16T04:36:36;25.93;;;16.23;;
16502;SDS011;53067;48.114;11.694;2022-12-16T04:39:21;25.27;;;16.80;;
16502;SDS011;53067;48.114;11.694;2022-12-16T04:42:07;27.43;;;17.00;;
16502;SDS011;53067;48.114;11.694;2022-12-16T04:44:53;28.60;;;18.47;;
16502;SDS011;53067;48.114;11.694;2022-12-16T04:47:38;28.37;;;18.07;;
16502;SDS011;53067;48.114;11.694;2022-12-16T04:50:24;25.37;;;17.33;;
16502;SDS011;53067;48.114;11.694;2022-12-16T04:53:09;29.03;;;18.50;;
16502;SDS011;53067;48.114;11.694;2022-12-16T04:55:54;25.33;;;18.10;;
16502;SDS011;53067;48.114;11.694;2022-12-16T04:58:40;26.97;;;18.03;;
16502;SDS011;53067;48.114;11.694;2022-12-16T05:01:25;30.47;;;19.00;;
16502;SDS011;53067;48.114;11.694;2022-12-16T05:04:11;32.37;;;19.03;;
16502;SDS011;53067;48.114;11.694;2022-12-16T05:06:56;32.43;;;20.00;;
16502;SDS011;53067;48.114;11.694;2022-12-16T05:09:42;29.00;;;18.57;;
16502;SDS011;53067;48.114;11.694;2022-12-16T05:12:27;30.43;;;19.60;;
16502;SDS011;53067;48.114;11.694;2022-12-16T05:15:13;30.60;;;19.00;;
16502;SDS011;53067;48.114;11.694;2022-12-16T05:18:06;29.97;;;19.87;;
16502;SDS011;53067;48.114;11.694;2022-12-16T05:20:53;28.20;;;18.63;;
16502;SDS011;53067;48.114;11.694;2022-12-16T05:23:40;30.30;;;19.53;;
16502;SDS011;53067;48.114;11.694;2022-12-16T05:26:26;28.27;;;18.27;;
16502;SDS011;53067;48.114;11.694;2022-12-16T05:29:11;27.77;;;19.47;;
16502;SDS011;53067;48.114;11.694;2022-12-16T05:31:57;30.67;;;17.67;;
16502;SDS011;53067;48.114;11.694;2022-12-16T05:34:42;31.10;;;19.30;;
16502;SDS011;53067;48.114;11.694;2022-12-16T05:37:28;25.83;;;17.90;;
16502;SDS011;53067;48.114;11.694;2022-12-16T05:40:13;27.20;;;18.73;;
16502;SDS011;53067;48.114;11.694;2022-12-16T05:42:59;29.53;;;19.00;;
16502;SDS011;53067;48.114;11.694;2022-12-16T05:45:44;34.40;;;19.60;;
16502;SDS011;53067;48.114;11.694;2022-12-16T05:48:30;32.00;;;20.27;;
16502;SDS011;53067;48.114;11.694;2022-12-16T05:51:14;30.70;;;19.60;;
16502;SDS011;53067;48.114;11.694;2022-12-16T05:53:59;30.27;;;18.57;;
16502;SDS011;53067;48.114;11.694;2022-12-16T05:56:45;31.63;;;19.53;;
16502;SDS011;53067;48.114;11.694;2022-12-16T05:59:30;32.17;;;19.40;;
16502;SDS011;53067;48.114;11.694;2022-12-16T06:02:16;30.87;;;19.87;;
16502;SDS011;53067;48.114;11.694;2022-12-16T06:05:01;28.07;;;17.60;;
16502;SDS011;53067;48.114;11.694;2022-12-16T06:07:51;35.17;;;20.57;;
16502;SDS011;53067;48.114;11.694;2022-12-16T06:10:36;26.87;;;18.00;;
16502;SDS011;53067;48.114;11.694;2022-12-16T06:13:22;35.20;;;20.70;;
16502;SDS011;53067;48.114;11.694;2022-12-16T06:16:08;33.93;;;20.50;;
16502;SDS011;53067;48.114;11.694;2022-12-16T06:18:53;33.73;;;20.37;;
16502;SDS011;53067;48.114;11.694;2022-12-16T06:21:39;31.83;;;19.67;;
16502;SDS011;53067;48.114;11.694;2022-12-16T06:24:24;32.73;;;19.73;;
16502;SDS011;53067;48.114;11.694;2022-12-16T06:27:10;30.17;;;19.10;;
16502;SDS011;53067;48.114;11.694;2022-12-16T06:29:55;32.90;;;20.77;;
16502;SDS011;53067;48.114;11.694;2022-12-16T06:32:41;30.53;;;19.77;;
16502;SDS011;53067;48.114;11.694;2022-12-16T06:35:27;34.37;;;21.50;;
16502;SDS011;53067;48.114;11.694;2022-12-16T06:38:13;29.90;;;19.43;;
16502;SDS011;53067;48.114;11.694;2022-12-16T06:40:58;30.50;;;19.80;;
16502;SDS011;53067;48.114;11.694;2022-12-16T06:43:44;32.00;;;20.20;;
16502;SDS011;53067;48.114;11.694;2022-12-16T06:46:29;35.63;;;20.57;;
16502;SDS011;53067;48.114;11.694;2022-12-16T06:49:15;37.00;;;21.77;;
16502;SDS011;53067;48.114;11.694;2022-12-16T06:52:00;40.70;;;22.90;;
16502;SDS011;53067;48.114;11.694;2022-12-16T06:54:46;32.83;;;20.90;;
16502;SDS011;53067;48.114;11.694;2022-12-16T06:57:31;40.83;;;23.70;;
16502;SDS011;53067;48.114;11.694;2022-12-16T07:00:17;37.97;;;22.77;;
16502;SDS011;53067;48.114;11.694;2022-12-16T07:03:03;38.53;;;23.40;;
16502;SDS011;53067;48.114;11.694;2022-12-16T07:05:51;34.57;;;20.70;;
16502;SDS011;53067;48.114;11.694;2022-12-16T07:08:39;41.90;;;22.50;;
16502;SDS011;53067;48.114;11.694;2022-12-16T07:11:24;45.13;;;26.70;;
16502;SDS011;53067;48.114;11.694;2022-12-16T07:14:09;43.47;;;25.37;;
16502;SDS011;53067;48.114;11.694;2022-12-16T07:16:55;39.33;;;23.77;;
16502;SDS011;53067;48.114;11.694;2022-12-16T07:19:41;42.00;;;24.87;;
16502;SDS011;53067;48.114;11.694;2022-12-16T07:22:26;37.67;;;23.70;;
16502;SDS011;53067;48.114;11.694;2022-12-16T07:25:12;42.73;;;25.37;;
16502;SDS011;53067;48.114;11.694;2022-12-16T07:27:57;42.03;;;25.13;;
16502;SDS011;53067;48.114;11.694;2022-12-16T07:30:43;43.97;;;26.13;;
16502;SDS011;53067;48.114;11.694;2022-12-16T07:33:28;42.03;;;24.83;;
16502;SDS011;53067;48.114;11.694;2022-12-16T07:36:14;39.27;;;23.77;;
16502;SDS011;53067;48.114;11.694;2022-12-16T07:38:59;43.10;;;23.97;;
16502;SDS011;53067;48.114;11.694;2022-12-16T07:41:44;43.07;;;25.60;;
16502;SDS011;53067;48.114;11.694;2022-12-16T07:44:30;40.83;;;24.77;;
16502;SDS011;53067;48.114;11.694;2022-12-16T07:47:15;43.33;;;25.23;;
16502;SDS011;53067;48.114;11.694;2022-12-16T07:50:01;43.57;;;24.30;;
16502;SDS011;53067;48.114;11.694;2022-12-16T07:52:52;44.27;;;24.13;;
16502;SDS011;53067;48.114;11.694;2022-12-16T07:55:40;41.00;;;24.73;;
16502;SDS011;53067;48.114;11.694;2022-12-16T07:58:25;41.87;;;23.57;;
16502;SDS011;53067;48.114;11.694;2022-12-16T08:01:11;39.20;;;24.27;;
16502;SDS011;53067;48.114;11.694;2022-12-16T08:03:56;40.07;;;23.80;;
16502;SDS011;53067;48.114;11.694;2022-12-16T08:06:42;45.43;;;24.50;;
16502;SDS011;53067;48.114;11.694;2022-12-16T08:09:27;38.77;;;23.20;;
16502;SDS011;53067;48.114;11.694;2022-12-16T08:12:13;44.50;;;26.00;;
16502;SDS011;53067;48.114;11.694;2022-12-16T08:14:58;43.93;;;25.10;;
16502;SDS011;53067;48.114;11.694;2022-12-16T08:17:48;43.03;;;25.53;;
16502;SDS011;53067;48.114;11.694;2022-12-16T08:20:35;44.37;;;25.20;;
16502;SDS011;53067;48.114;11.694;2022-12-16T08:23:20;45.60;;;25.90;;
16502;SDS011;53067;48.114;11.694;2022-12-16T08:26:05;44.40;;;25.80;;
16502;SDS011;53067;48.114;11.694;2022-12-16T08:28:51;47.10;;;26.20;;
16502;SDS011;53067;48.114;11.694;2022-12-16T08:31:36;44.17;;;24.00;;
16502;SDS011;53067;48.114;11.694;2022-12-16T08:34:23;44.47;;;24.57;;
16502;SDS011;53067;48.114;11.694;2022-12-16T08:37:09;45.97;;;25.83;;
16502;SDS011;53067;48.114;11.694;2022-12-16T08:39:54;42.33;;;24.27;;
16502;SDS011;53067;48.114;11.694;2022-12-16T08:42:40;40.27;;;23.90;;
16502;SDS011;53067;48.114;11.694;2022-12-16T08:45:25;40.60;;;24.43;;
16502;SDS011;53067;48.114;11.694;2022-12-16T08:48:11;39.23;;;22.90;;
16502;SDS011;53067;48.114;11.694;2022-12-16T08:50:59;41.43;;;24.13;;
16502;SDS011;53067;48.114;11.694;2022-12-16T08:53:48;58.17;;;30.30;;
16502;SDS011;53067;48.114;11.694;2022-12-16T08:56:33;37.87;;;22.83;;
16502;SDS011;53067;48.114;11.694;2022-12-16T08:59:18;38.97;;;22.33;;
16502;SDS011;53067;48.114;11.694;2022-12-16T09:02:04;37.43;;;22.03;;
16502;SDS011;53067;48.114;11.694;2022-12-16T09:04:50;41.53;;;23.37;;
16502;SDS011;53067;48.114;11.694;2022-12-16T09:07:35;39.47;;;21.87;;
16502;SDS011;53067;48.114;11.694;2022-12-16T09:10:21;34.50;;;22.07;;
16502;SDS011;53067;48.114;11.694;2022-12-16T09:13:07;42.13;;;23.30;;
16502;SDS011;53067;48.114;11.694;2022-12-16T09:15:54;37.90;;;21.87;;
16502;SDS011;53067;48.114;11.694;2022-12-16T09:18:40;39.73;;;23.03;;
16502;SDS011;53067;48.114;11.694;2022-12-16T09:21:26;41.60;;;22.03;;
16502;SDS011;53067;48.114;11.694;2022-12-16T09:24:12;40.80;;;22.73;;
16502;SDS011;53067;48.114;11.694;2022-12-16T09:26:57;37.30;;;22.77;;
16502;SDS011;53067;48.114;11.694;2022-12-16T09:29:35;36.73;;;23.77;;
16502;SDS011;53067;48.114;11.694;2022-12-16T09:32:21;38.53;;;23.33;;
16502;SDS011;53067;48.114;11.694;2022-12-16T09:35:07;42.00;;;24.10;;
16502;SDS011;53067;48.114;11.694;2022-12-16T09:37:53;36.40;;;23.03;;
16502;SDS011;53067;48.114;11.694;2022-12-16T09:40:39;32.50;;;21.10;;
16502;SDS011;53067;48.114;11.694;2022-12-16T09:46:20;37.07;;;22.23;;
16502;SDS011;53067;48.114;11.694;2022-12-16T09:52:13;38.63;;;23.50;;
16502;SDS011;53067;48.114;11.694;2022-12-16T09:55:01;33.63;;;21.10;;
16502;SDS011;53067;48.114;11.694;2022-12-16T09:57:44;36.33;;;22.97;;
16502;SDS011;53067;48.114;11.694;2022-12-16T10:00:31;41.03;;;23.63;;
16502;SDS011;53067;48.114;11.694;2022-12-16T10:03:25;33.80;;;20.80;;
16502;SDS011;53067;48.114;11.694;2022-12-16T10:06:29;39.70;;;22.53;;
16502;SDS011;53067;48.114;11.694;2022-12-16T10:15:26;34.37;;;20.53;;
16502;SDS011;53067;48.114;11.694;2022-12-16T10:21:16;35.60;;;21.20;;
16502;SDS011;53067;48.114;11.694;2022-12-16T10:24:48;34.70;;;20.07;;
16502;SDS011;53067;48.114;11.694;2022-12-16T10:27:02;30.13;;;20.07;;
16502;SDS011;53067;48.114;11.694;2022-12-16T10:29:48;35.43;;;20.30;;
16502;SDS011;53067;48.114;11.694;2022-12-16T10:32:38;35.40;;;20.70;;
16502;SDS011;53067;48.114;11.694;2022-12-16T10:35:33;34.33;;;20.03;;
16502;SDS011;53067;48.114;11.694;2022-12-16T10:38:24;38.10;;;22.97;;
16502;SDS011;53067;48.114;11.694;2022-12-16T10:41:13;39.27;;;21.47;;
16502;SDS011;53067;48.114;11.694;2022-12-16T10:44:00;40.93;;;23.50;;
16502;SDS011;53067;48.114;11.694;2022-12-16T10:46:49;41.33;;;23.57;;
16502;SDS011;53067;48.114;11.694;2022-12-16T10:49:34;34.53;;;21.60;;
16502;SDS011;53067;48.114;11.694;2022-12-16T10:52:20;36.30;;;22.43;;
16502;SDS011;53067;48.114;11.694;2022-12-16T10:55:32;37.87;;;22.83;;
16502;SDS011;53067;48.114;11.694;2022-12-16T10:58:02;35.80;;;22.13;;
16502;SDS011;53067;48.114;11.694;2022-12-16T11:00:57;35.87;;;22.17;;
16502;SDS011;53067;48.114;11.694;2022-12-16T11:03:42;38.63;;;22.43;;
16502;SDS011;53067;48.114;11.694;2022-12-16T11:06:36;33.73;;;21.60;;
16502;SDS011;53067;48.114;11.694;2022-12-16T11:09:26;38.90;;;22.53;;
16502;SDS011;53067;48.114;11.694;2022-12-16T11:12:25;34.93;;;21.37;;
16502;SDS011;53067;48.114;11.694;2022-12-16T11:15:19;35.80;;;22.03;;
16502;SDS011;53067;48.114;11.694;2022-12-16T11:18:13;37.13;;;22.20;;
16502;SDS011;53067;48.114;11.694;2022-12-16T11:21:11;35.80;;;21.67;;
16502;SDS011;53067;48.114;11.694;2022-12-16T11:24:21;37.17;;;21.30;;
16502;SDS011;53067;48.114;11.694;2022-12-16T11:27:25;35.63;;;21.93;;
16502;SDS011;53067;48.114;11.694;2022-12-16T11:30:10;37.57;;;22.87;;
16502;SDS011;53067;48.114;11.694;2022-12-16T11:32:51;37.43;;;24.03;;
16502;SDS011;53067;48.114;11.694;2022-12-16T11:35:46;41.90;;;23.73;;
16502;SDS011;53067;48.114;11.694;2022-12-16T11:38:39;40.97;;;23.90;;
16502;SDS011;53067;48.114;11.694;2022-12-16T11:41:32;37.27;;;23.43;;
16502;SDS011;53067;48.114;11.694;2022-12-16T11:44:27;39.77;;;23.37;;
16502;SDS011;53067;48.114;11.694;2022-12-16T11:50:27;36.60;;;23.13;;
16502;SDS011;53067;48.114;11.694;2022-12-16T11:53:36;39.47;;;23.47;;
16502;SDS011;53067;48.114;11.694;2022-12-16T11:56:39;35.90;;;21.67;;
16502;SDS011;53067;48.114;11.694;2022-12-16T11:59:37;35.10;;;22.77;;
16502;SDS011;53067;48.114;11.694;2022-12-16T12:02:32;33.63;;;21.97;;
16502;SDS011;53067;48.114;11.694;2022-12-16T12:05:15;42.30;;;22.97;;
16502;SDS011;53067;48.114;11.694;2022-12-16T12:11:15;31.77;;;20.40;;
16502;SDS011;53067;48.114;11.694;2022-12-16T12:14:23;35.07;;;19.43;;
16502;SDS011;53067;48.114;11.694;2022-12-16T12:26:15;35.87;;;21.63;;
16502;SDS011;53067;48.114;11.694;2022-12-16T12:29:10;41.47;;;23.43;;
16502;SDS011;53067;48.114;11.694;2022-12-16T12:32:01;35.53;;;22.50;;
16502;SDS011;53067;48.114;11.694;2022-12-16T12:34:56;36.23;;;21.77;;
16502;SDS011;53067;48.114;11.694;2022-12-16T12:37:48;35.93;;;21.07;;
16502;SDS011;53067;48.114;11.694;2022-12-16T12:44:00;34.30;;;21.13;;
16502;SDS011;53067;48.114;11.694;2022-12-16T12:47:03;32.73;;;21.67;;
16502;SDS011;53067;48.114;11.694;2022-12-16T12:52:57;38.53;;;23.03;;
16502;SDS011;53067;48.114;11.694;2022-12-16T12:58:43;33.27;;;21.23;;
16502;SDS011;53067;48.114;11.694;2022-12-16T13:01:30;32.27;;;20.00;;
16502;SDS011;53067;48.114;11.694;2022-12-16T13:04:18;33.40;;;19.07;;
16502;SDS011;53067;48.114;11.694;2022-12-16T13:07:05;29.33;;;19.57;;
16502;SDS011;53067;48.114;11.694;2022-12-16T13:16:08;33.80;;;20.67;;
16502;SDS011;53067;48.114;11.694;2022-12-16T13:22:25;32.03;;;20.07;;
16502;SDS011;53067;48.114;11.694;2022-12-16T13:25:28;33.83;;;20.33;;
16502;SDS011;53067;48.114;11.694;2022-12-16T13:28:23;33.07;;;21.10;;
16502;SDS011;53067;48.114;11.694;2022-12-16T13:31:10;33.73;;;19.83;;
16502;SDS011;53067;48.114;11.694;2022-12-16T13:33:58;32.77;;;19.87;;
16502;SDS011;53067;48.114;11.694;2022-12-16T13:36:44;30.83;;;19.90;;
16502;SDS011;53067;48.114;11.694;2022-12-16T13:39:32;33.27;;;20.60;;
16502;SDS011;53067;48.114;11.694;2022-12-16T13:42:32;33.77;;;21.13;;
16502;SDS011;53067;48.114;11.694;2022-12-16T13:45:27;32.17;;;21.13;;
16502;SDS011;53067;48.114;11.694;2022-12-16T13:48:27;34.00;;;21.77;;
16502;SDS011;53067;48.114;11.694;2022-12-16T13:54:37;36.30;;;21.67;;
16502;SDS011;53067;48.114;11.694;2022-12-16T13:57:23;56.30;;;30.63;;
16502;SDS011;53067;48.114;11.694;2022-12-16T14:00:21;34.63;;;21.13;;
16502;SDS011;53067;48.114;11.694;2022-12-16T14:03:25;31.63;;;19.23;;
16502;SDS011;53067;48.114;11.694;2022-12-16T14:06:03;32.37;;;20.60;;
16502;SDS011;53067;48.114;11.694;2022-12-16T14:08:50;31.97;;;19.80;;
16502;SDS011;53067;48.114;11.694;2022-12-16T14:11:42;27.63;;;19.47;;
16502;SDS011;53067;48.114;11.694;2022-12-16T14:14:31;35.97;;;20.47;;
16502;SDS011;53067;48.114;11.694;2022-12-16T14:17:32;30.03;;;19.27;;
16502;SDS011;53067;48.114;11.694;2022-12-16T14:26:08;33.57;;;20.60;;
16502;SDS011;53067;48.114;11.694;2022-12-16T14:28:56;34.77;;;20.53;;
16502;SDS011;53067;48.114;11.694;2022-12-16T14:31:43;35.70;;;18.73;;
16502;SDS011;53067;48.114;11.694;2022-12-16T14:34:34;29.90;;;17.30;;
16502;SDS011;53067;48.114;11.694;2022-12-16T14:37:32;28.33;;;19.00;;
16502;SDS011;53067;48.114;11.694;2022-12-16T14:40:24;31.87;;;19.40;;
16502;SDS011;53067;48.114;11.694;2022-12-16T14:43:12;31.77;;;19.40;;
16502;SDS011;53067;48.114;11.694;2022-12-16T14:45:59;29.53;;;18.07;;
16502;SDS011;53067;48.114;11.694;2022-12-16T14:48:46;36.47;;;20.43;;
16502;SDS011;53067;48.114;11.694;2022-12-16T14:51:33;30.13;;;18.80;;
16502;SDS011;53067;48.114;11.694;2022-12-16T15:00:11;27.47;;;17.60;;
16502;SDS011;53067;48.114;11.694;2022-12-16T15:03:13;30.60;;;18.53;;
16502;SDS011;53067;48.114;11.694;2022-12-16T15:06:02;30.40;;;18.47;;
16502;SDS011;53067;48.114;11.694;2022-12-16T15:08:54;35.20;;;19.67;;
16502;SDS011;53067;48.114;11.694;2022-12-16T15:11:42;30.50;;;18.97;;
16502;SDS011;53067;48.114;11.694;2022-12-16T15:14:29;33.73;;;18.43;;
16502;SDS011;53067;48.114;11.694;2022-12-16T15:20:19;31.03;;;19.03;;
16502;SDS011;53067;48.114;11.694;2022-12-16T15:23:02;30.67;;;18.50;;
16502;SDS011;53067;48.114;11.694;2022-12-16T15:25:51;32.00;;;19.63;;
16502;SDS011;53067;48.114;11.694;2022-12-16T15:28:39;30.17;;;19.03;;
16502;SDS011;53067;48.114;11.694;2022-12-16T15:31:30;27.77;;;18.60;;
16502;SDS011;53067;48.114;11.694;2022-12-16T15:34:24;28.20;;;18.33;;
16502;SDS011;53067;48.114;11.694;2022-12-16T15:37:19;29.20;;;19.10;;
16502;SDS011;53067;48.114;11.694;2022-12-16T15:40:40;35.47;;;19.97;;
16502;SDS011;53067;48.114;11.694;2022-12-16T15:43:04;31.80;;;18.53;;
16502;SDS011;53067;48.114;11.694;2022-12-16T15:45:50;28.73;;;18.53;;
16502;SDS011;53067;48.114;11.694;2022-12-16T15:48:35;27.23;;;17.83;;
16502;SDS011;53067;48.114;11.694;2022-12-16T15:51:31;28.83;;;17.80;;
16502;SDS011;53067;48.114;11.694;2022-12-16T15:54:20;24.97;;;15.27;;
16502;SDS011;53067;48.114;11.694;2022-12-16T15:57:26;28.43;;;17.67;;
16502;SDS011;53067;48.114;11.694;2022-12-16T16:00:24;29.03;;;17.00;;
16502;SDS011;53067;48.114;11.694;2022-12-16T16:03:18;23.73;;;15.70;;
16502;SDS011;53067;48.114;11.694;2022-12-16T16:06:15;22.23;;;14.53;;
16502;SDS011;53067;48.114;11.694;2022-12-16T16:09:24;28.13;;;16.53;;
16502;SDS011;53067;48.114;11.694;2022-12-16T16:11:53;29.57;;;17.23;;
16502;SDS011;53067;48.114;11.694;2022-12-16T16:14:39;25.10;;;17.10;;
16502;SDS011;53067;48.114;11.694;2022-12-16T16:17:24;30.17;;;18.00;;
16502;SDS011;53067;48.114;11.694;2022-12-16T16:20:13;27.17;;;17.33;;
16502;SDS011;53067;48.114;11.694;2022-12-16T16:23:01;26.67;;;17.23;;
16502;SDS011;53067;48.114;11.694;2022-12-16T16:25:47;26.97;;;17.17;;
16502;SDS011;53067;48.114;11.694;2022-12-16T16:28:33;31.40;;;18.40;;
16502;SDS011;53067;48.114;11.694;2022-12-16T16:31:19;26.37;;;16.20;;
16502;SDS011;53067;48.114;11.694;2022-12-16T16:34:04;24.90;;;16.17;;
16502;SDS011;53067;48.114;11.694;2022-12-16T16:36:54;26.20;;;16.90;;
16502;SDS011;53067;48.114;11.694;2022-12-16T16:39:41;26.03;;;15.90;;
16502;SDS011;53067;48.114;11.694;2022-12-16T16:42:27;28.07;;;17.37;;
16502;SDS011;53067;48.114;11.694;2022-12-16T16:45:13;26.70;;;16.97;;
16502;SDS011;53067;48.114;11.694;2022-12-16T16:48:32;23.83;;;16.30;;
16502;SDS011;53067;48.114;11.694;2022-12-16T16:50:56;23.03;;;16.80;;
16502;SDS011;53067;48.114;11.694;2022-12-16T16:53:43;25.63;;;16.07;;
16502;SDS011;53067;48.114;11.694;2022-12-16T16:56:30;27.00;;;17.30;;
16502;SDS011;53067;48.114;11.694;2022-12-16T16:59:17;29.37;;;17.87;;
16502;SDS011;53067;48.114;11.694;2022-12-16T17:02:12;28.17;;;18.07;;
16502;SDS011;53067;48.114;11.694;2022-12-16T17:05:02;29.77;;;17.73;;
16502;SDS011;53067;48.114;11.694;2022-12-16T17:07:48;23.33;;;16.20;;
16502;SDS011;53067;48.114;11.694;2022-12-16T17:10:33;26.40;;;17.80;;
16502;SDS011;53067;48.114;11.694;2022-12-16T17:13:19;25.10;;;17.07;;